• Join FlightAware (Why Join?)
  • Login
  • US Flag 
08:51AM EDT


 

Airport Tracker/Info


-or-


 

Live Flight TrackerFlight Track Log ✈ N39751 ✈ 05-Jul-2013 ✈ KLRO - KGMU

Flight Track Log - Related Links

Times and Time Zones

All times are in EDT time to prevent confusion due to time zone crossing. See the N39751 flight status page for this flight to view local times or setup timezone preferences in your user account.

Time Position Orientation Groundspeed Altitude Reporting Facility
EDT Latitude Longitude Course Direction KTS MPH feet Rate Location/Type
05:08PM 33.8168 -80.9693 313° West  Level Estimated
05:09PM 33.8444 -81.0056 313° West  Level Estimated
05:10PM 33.8721 -81.0420 312° West  Level Estimated
05:11PM 33.8997 -81.0784 312° West  Level Estimated
05:12PM 33.9274 -81.1148 312° West  Level Estimated
05:13PM 33.9550 -81.1512 312° West  Level Estimated
05:14PM 33.9826 -81.1877 312° West  Level Estimated
05:15PM 34.0102 -81.2242 312° West  Level Estimated
05:16PM 34.0378 -81.2607 312° West  Level Estimated
05:17PM 34.0654 -81.2972 312° West  Level Estimated
05:18PM 34.0930 -81.3338 312° West  Level Estimated
05:19PM 34.1205 -81.3704 312° West  Level Estimated
05:20PM 34.1481 -81.4070 312° West  Level Estimated
05:21PM 34.1756 -81.4436 312° West  Level Estimated
05:22PM 34.2032 -81.4802 312° West  Level Estimated
05:23PM 34.2307 -81.5169 312° West  Level Estimated
05:24PM 34.2582 -81.5536 312° West  Level Estimated
05:25PM 34.2857 -81.5903 312° West  Level Estimated
05:26PM 34.3132 -81.6271 312° West  Level Estimated
05:27PM 34.3406 -81.6639 312° West  Level Estimated
05:28PM 34.3681 -81.7007 312° West  Level Estimated
05:29PM 34.3955 -81.7375 312° West  Level Estimated
05:30PM 34.4230 -81.7743 312° West  Level Estimated
05:31PM 34.4504 -81.8112 312° West  Level Estimated
05:32PM 34.4778 -81.8481 312° West  Level Estimated
05:33PM 34.5052 -81.8850 312° West  Level Estimated
05:34PM 34.5326 -81.9220 312° West  Level Estimated
05:35PM 34.5600 -81.9589 312° West  Level Estimated
05:36PM 34.5874 -81.9959 312° West  Level Estimated
05:37PM 34.6148 -82.0329 312° West  Level Estimated
05:38PM 34.6421 -82.0700 312° West  Level Estimated
05:39PM 34.6694 -82.1070 312° West  Level Estimated
05:40PM 34.6968 -82.1441 312° West  Level Estimated
05:41PM 34.7241 -82.1812 312° West  Level Estimated
05:42PM 34.7514 -82.2184 312° West  Level Estimated
05:43PM 34.7787 -82.2555 312° West  Level Estimated
05:44PM 34.8060 -82.2927 312° West  Level Estimated
05:45PM 34.8332 -82.3299 312° West  Level Estimated
05:46PM 34.8479 -82.3500 312° West  Level Estimated
05:47PM 34.8479 -82.3500 North  Level Estimated
05:48PM 34.8479 -82.3500 North  Level Estimated
05:49PM 34.8479 -82.3500 North  Level Estimated
05:50PM 34.8479 -82.3500 North  Level Estimated
05:51PM 34.8479 -82.3500 North  Level Estimated
05:52PM 34.8479 -82.3500 North  Level Estimated
05:53PM 34.8479 -82.3500 North  Level Estimated
05:54PM 34.8479 -82.3500 North  Level Estimated
05:55PM 34.8479 -82.3500 North  Level Estimated